sensor_id;sensor_type;location;lat;lon;timestamp;pressure;altitude;pressure_sealevel;temperature;humidity
70434;BME280;57876;47.792;12.960;2023-01-08T00:00:43;96434.69;;;17.17;45.43
70434;BME280;57876;47.792;12.960;2023-01-08T00:03:07;96422.03;;;17.12;45.44
70434;BME280;57876;47.792;12.960;2023-01-08T00:05:32;96422.97;;;17.16;45.64
70434;BME280;57876;47.792;12.960;2023-01-08T00:07:56;96426.03;;;17.15;46.06
70434;BME280;57876;47.792;12.960;2023-01-08T00:10:21;96423.66;;;17.13;45.86
70434;BME280;57876;47.792;12.960;2023-01-08T00:12:45;96423.66;;;17.13;45.42
70434;BME280;57876;47.792;12.960;2023-01-08T00:15:09;96414.66;;;17.13;45.72
70434;BME280;57876;47.792;12.960;2023-01-08T00:17:34;96407.09;;;17.10;45.37
70434;BME280;57876;47.792;12.960;2023-01-08T00:19:58;96403.94;;;17.08;45.59
70434;BME280;57876;47.792;12.960;2023-01-08T00:22:22;96402.78;;;17.09;45.65
70434;BME280;57876;47.792;12.960;2023-01-08T00:24:47;96400.72;;;17.06;45.82
70434;BME280;57876;47.792;12.960;2023-01-08T00:27:12;96389.69;;;17.02;45.26
70434;BME280;57876;47.792;12.960;2023-01-08T00:29:36;96394.47;;;17.05;45.91
70434;BME280;57876;47.792;12.960;2023-01-08T00:32:00;96399.16;;;17.05;45.75
70434;BME280;57876;47.792;12.960;2023-01-08T00:34:25;96404.94;;;17.03;46.01
70434;BME280;57876;47.792;12.960;2023-01-08T00:36:49;96393.53;;;17.01;45.85
70434;BME280;57876;47.792;12.960;2023-01-08T00:39:14;96385.53;;;16.96;45.88
70434;BME280;57876;47.792;12.960;2023-01-08T00:41:38;96380.44;;;16.94;45.34
70434;BME280;57876;47.792;12.960;2023-01-08T00:44:07;96388.41;;;17.00;45.65
70434;BME280;57876;47.792;12.960;2023-01-08T00:46:31;96380.22;;;17.00;45.62
70434;BME280;57876;47.792;12.960;2023-01-08T00:48:56;96375.75;;;16.95;45.77
70434;BME280;57876;47.792;12.960;2023-01-08T00:51:20;96373.81;;;16.95;45.67
70434;BME280;57876;47.792;12.960;2023-01-08T00:53:44;96366.78;;;16.94;45.41
70434;BME280;57876;47.792;12.960;2023-01-08T00:56:09;96368.34;;;16.95;45.61
70434;BME280;57876;47.792;12.960;2023-01-08T00:58:34;96364.03;;;16.94;45.47
70434;BME280;57876;47.792;12.960;2023-01-08T01:00:59;96359.69;;;16.93;45.87
70434;BME280;57876;47.792;12.960;2023-01-08T01:03:24;96355.69;;;16.91;45.94
70434;BME280;57876;47.792;12.960;2023-01-08T01:05:48;96356.53;;;16.91;45.37
70434;BME280;57876;47.792;12.960;2023-01-08T01:08:13;96346.94;;;16.85;45.59
70434;BME280;57876;47.792;12.960;2023-01-08T01:10:38;96354.13;;;16.90;45.84
70434;BME280;57876;47.792;12.960;2023-01-08T01:13:02;96346.59;;;16.87;45.80
70434;BME280;57876;47.792;12.960;2023-01-08T01:15:27;96343.06;;;16.86;45.96
70434;BME280;57876;47.792;12.960;2023-01-08T01:17:51;96336.78;;;16.86;45.45
70434;BME280;57876;47.792;12.960;2023-01-08T01:20:16;96344.19;;;16.85;46.00
70434;BME280;57876;47.792;12.960;2023-01-08T01:22:41;96346.59;;;16.87;45.90
70434;BME280;57876;47.792;12.960;2023-01-08T01:25:06;96339.41;;;16.82;45.87
70434;BME280;57876;47.792;12.960;2023-01-08T01:27:30;96352.38;;;16.85;46.02
70434;BME280;57876;47.792;12.960;2023-01-08T01:29:55;96344.06;;;16.82;45.63
70434;BME280;57876;47.792;12.960;2023-01-08T01:32:19;96347.13;;;16.80;45.44
70434;BME280;57876;47.792;12.960;2023-01-08T01:34:43;96348.28;;;16.79;45.39
70434;BME280;57876;47.792;12.960;2023-01-08T01:37:10;96344.41;;;16.80;45.78
70434;BME280;57876;47.792;12.960;2023-01-08T01:39:35;96352.94;;;16.79;45.96
70434;BME280;57876;47.792;12.960;2023-01-08T01:41:59;96344.25;;;16.77;46.07
70434;BME280;57876;47.792;12.960;2023-01-08T01:44:45;96356.47;;;16.79;45.82
70434;BME280;57876;47.792;12.960;2023-01-08T01:47:31;96343.47;;;16.76;45.29
70434;BME280;57876;47.792;12.960;2023-01-08T01:55:22;96322.63;;;16.71;45.74
70434;BME280;57876;47.792;12.960;2023-01-08T01:57:57;96319.22;;;16.74;45.45
70434;BME280;57876;47.792;12.960;2023-01-08T02:00:23;96320.69;;;16.72;45.60
70434;BME280;57876;47.792;12.960;2023-01-08T02:02:48;96321.47;;;16.72;45.61
70434;BME280;57876;47.792;12.960;2023-01-08T02:05:13;96316.69;;;16.69;45.76
70434;BME280;57876;47.792;12.960;2023-01-08T02:07:52;96318.28;;;16.70;45.63
70434;BME280;57876;47.792;12.960;2023-01-08T02:10:28;96309.53;;;16.65;45.38
70434;BME280;57876;47.792;12.960;2023-01-08T02:13:10;96308.03;;;16.67;45.42
70434;BME280;57876;47.792;12.960;2023-01-08T02:15:50;96303.03;;;16.69;45.37
70434;BME280;57876;47.792;12.960;2023-01-08T02:18:25;96302.56;;;16.67;45.89
70434;BME280;57876;47.792;12.960;2023-01-08T02:20:55;96304.69;;;16.62;45.87
70434;BME280;57876;47.792;12.960;2023-01-08T02:26:04;96311.00;;;16.62;45.76
70434;BME280;57876;47.792;12.960;2023-01-08T02:28:58;96301.97;;;16.62;45.61
70434;BME280;57876;47.792;12.960;2023-01-08T02:31:23;96304.38;;;16.63;45.68
70434;BME280;57876;47.792;12.960;2023-01-08T02:33:48;96299.25;;;16.62;45.58
70434;BME280;57876;47.792;12.960;2023-01-08T02:38:59;96302.44;;;16.64;45.55
70434;BME280;57876;47.792;12.960;2023-01-08T02:41:40;96292.66;;;16.63;45.55
70434;BME280;57876;47.792;12.960;2023-01-08T02:44:12;96290.72;;;16.63;45.76
70434;BME280;57876;47.792;12.960;2023-01-08T02:46:41;96296.78;;;16.69;45.39
70434;BME280;57876;47.792;12.960;2023-01-08T02:49:09;96294.50;;;16.71;45.60
70434;BME280;57876;47.792;12.960;2023-01-08T02:51:43;96297.25;;;16.71;45.49
70434;BME280;57876;47.792;12.960;2023-01-08T02:54:15;96300.44;;;16.73;45.60
70434;BME280;57876;47.792;12.960;2023-01-08T02:56:46;96281.66;;;16.71;45.71
70434;BME280;57876;47.792;12.960;2023-01-08T02:59:14;96276.50;;;16.70;45.59
70434;BME280;57876;47.792;12.960;2023-01-08T03:01:39;96283.22;;;16.72;45.42
70434;BME280;57876;47.792;12.960;2023-01-08T03:04:13;96278.91;;;16.71;45.62
70434;BME280;57876;47.792;12.960;2023-01-08T03:06:38;96275.41;;;16.71;45.50
70434;BME280;57876;47.792;12.960;2023-01-08T03:09:03;96276.66;;;16.73;45.75
70434;BME280;57876;47.792;12.960;2023-01-08T03:11:35;96277.44;;;16.74;45.15
70434;BME280;57876;47.792;12.960;2023-01-08T03:14:14;96276.31;;;16.75;45.32
70434;BME280;57876;47.792;12.960;2023-01-08T03:16:46;96276.31;;;16.75;45.56
70434;BME280;57876;47.792;12.960;2023-01-08T03:19:16;96266.84;;;16.72;45.58
70434;BME280;57876;47.792;12.960;2023-01-08T03:21:43;96271.19;;;16.73;45.63
70434;BME280;57876;47.792;12.960;2023-01-08T03:24:12;96271.53;;;16.72;45.44
70434;BME280;57876;47.792;12.960;2023-01-08T03:26:40;96259.91;;;16.75;45.52
70434;BME280;57876;47.792;12.960;2023-01-08T03:29:08;96258.81;;;16.76;45.85
70434;BME280;57876;47.792;12.960;2023-01-08T03:31:34;96265.56;;;16.79;45.56
70434;BME280;57876;47.792;12.960;2023-01-08T03:34:00;96252.22;;;16.77;45.62
70434;BME280;57876;47.792;12.960;2023-01-08T03:36:28;96247.09;;;16.76;45.48
70434;BME280;57876;47.792;12.960;2023-01-08T03:39:29;96261.22;;;16.78;45.54
70434;BME280;57876;47.792;12.960;2023-01-08T03:41:56;96248.38;;;16.78;45.46
70434;BME280;57876;47.792;12.960;2023-01-08T03:44:22;96237.44;;;16.78;45.61
70434;BME280;57876;47.792;12.960;2023-01-08T03:46:51;96227.66;;;16.77;45.69
70434;BME280;57876;47.792;12.960;2023-01-08T03:49:16;96220.72;;;16.80;45.77
70434;BME280;57876;47.792;12.960;2023-01-08T03:51:44;96221.06;;;16.78;45.45
70434;BME280;57876;47.792;12.960;2023-01-08T03:54:12;96214.31;;;16.76;45.98
70434;BME280;57876;47.792;12.960;2023-01-08T03:56:37;96208.03;;;16.75;45.68
70434;BME280;57876;47.792;12.960;2023-01-08T03:59:02;96203.06;;;16.77;45.33
70434;BME280;57876;47.792;12.960;2023-01-08T04:01:26;96205.81;;;16.77;45.91
70434;BME280;57876;47.792;12.960;2023-01-08T04:03:50;96203.53;;;16.79;45.90
70434;BME280;57876;47.792;12.960;2023-01-08T04:06:15;96200.34;;;16.77;45.37
70434;BME280;57876;47.792;12.960;2023-01-08T04:08:39;96196.50;;;16.78;45.39
70434;BME280;57876;47.792;12.960;2023-01-08T04:11:03;96209.31;;;16.78;45.29
70434;BME280;57876;47.792;12.960;2023-01-08T04:13:28;96192.94;;;16.78;45.93
70434;BME280;57876;47.792;12.960;2023-01-08T04:15:52;96196.91;;;16.80;45.73
70434;BME280;57876;47.792;12.960;2023-01-08T04:18:17;96191.03;;;16.78;45.73
70434;BME280;57876;47.792;12.960;2023-01-08T04:20:45;96193.75;;;16.78;45.70
70434;BME280;57876;47.792;12.960;2023-01-08T04:23:10;96193.75;;;16.78;45.94
70434;BME280;57876;47.792;12.960;2023-01-08T04:25:36;96192.59;;;16.79;45.57
70434;BME280;57876;47.792;12.960;2023-01-08T04:28:01;96186.34;;;16.79;45.74
70434;BME280;57876;47.792;12.960;2023-01-08T04:30:25;96186.00;;;16.80;45.55
70434;BME280;57876;47.792;12.960;2023-01-08T04:32:50;96187.94;;;16.80;45.67
70434;BME280;57876;47.792;12.960;2023-01-08T04:35:14;96180.53;;;16.80;45.46
70434;BME280;57876;47.792;12.960;2023-01-08T04:37:38;96180.91;;;16.79;45.89
70434;BME280;57876;47.792;12.960;2023-01-08T04:40:03;96173.50;;;16.79;45.50
70434;BME280;57876;47.792;12.960;2023-01-08T04:42:28;96177.00;;;16.80;45.20
70434;BME280;57876;47.792;12.960;2023-01-08T04:44:52;96182.00;;;16.78;45.79
70434;BME280;57876;47.792;12.960;2023-01-08T04:47:17;96180.91;;;16.79;45.63
70434;BME280;57876;47.792;12.960;2023-01-08T04:49:41;96173.03;;;16.77;46.00
70434;BME280;57876;47.792;12.960;2023-01-08T04:52:05;96176.09;;;16.76;45.83
70434;BME280;57876;47.792;12.960;2023-01-08T04:54:30;96185.41;;;16.74;45.52
70434;BME280;57876;47.792;12.960;2023-01-08T04:56:54;96172.53;;;16.75;45.78
70434;BME280;57876;47.792;12.960;2023-01-08T04:59:19;96178.00;;;16.75;45.88
70434;BME280;57876;47.792;12.960;2023-01-08T05:01:43;96183.25;;;16.80;45.88
70434;BME280;57876;47.792;12.960;2023-01-08T05:04:09;96180.53;;;16.80;45.78
70434;BME280;57876;47.792;12.960;2023-01-08T05:06:34;96181.47;;;16.84;45.35
70434;BME280;57876;47.792;12.960;2023-01-08T05:08:58;96183.84;;;16.86;45.88
70434;BME280;57876;47.792;12.960;2023-01-08T05:11:23;96179.63;;;16.88;45.32
70434;BME280;57876;47.792;12.960;2023-01-08T05:13:48;96181.94;;;16.86;45.46
70434;BME280;57876;47.792;12.960;2023-01-08T05:16:13;96176.25;;;16.91;45.53
70434;BME280;57876;47.792;12.960;2023-01-08T05:18:37;96172.25;;;16.89;46.01
70434;BME280;57876;47.792;12.960;2023-01-08T05:21:03;96162.13;;;16.89;45.57
70434;BME280;57876;47.792;12.960;2023-01-08T05:23:29;96163.69;;;16.90;45.72
70434;BME280;57876;47.792;12.960;2023-01-08T05:25:57;96159.03;;;16.91;45.45
70434;BME280;57876;47.792;12.960;2023-01-08T05:28:22;96151.19;;;16.89;45.73
70434;BME280;57876;47.792;12.960;2023-01-08T05:30:48;96156.66;;;16.89;45.79
70434;BME280;57876;47.792;12.960;2023-01-08T05:33:12;96157.78;;;16.88;45.95
70434;BME280;57876;47.792;12.960;2023-01-08T05:35:38;96149.47;;;16.85;45.38
70434;BME280;57876;47.792;12.960;2023-01-08T05:38:02;96152.00;;;16.90;45.97
70434;BME280;57876;47.792;12.960;2023-01-08T05:40:27;96139.47;;;16.89;45.80
70434;BME280;57876;47.792;12.960;2023-01-08T05:42:51;96145.03;;;16.92;45.29
70434;BME280;57876;47.792;12.960;2023-01-08T05:45:15;96149.34;;;16.93;45.52
70434;BME280;57876;47.792;12.960;2023-01-08T05:47:40;96146.63;;;16.93;45.77
70434;BME280;57876;47.792;12.960;2023-01-08T05:50:05;96141.16;;;16.93;45.53
70434;BME280;57876;47.792;12.960;2023-01-08T05:52:29;96140.03;;;16.94;45.61
70434;BME280;57876;47.792;12.960;2023-01-08T05:54:53;96149.94;;;16.99;45.40
70434;BME280;57876;47.792;12.960;2023-01-08T05:57:18;96151.63;;;17.04;45.36
70434;BME280;57876;47.792;12.960;2023-01-08T05:59:42;96150.94;;;17.07;45.72
70434;BME280;57876;47.792;12.960;2023-01-08T06:02:07;96161.19;;;17.10;45.78
70434;BME280;57876;47.792;12.960;2023-01-08T06:04:32;96155.84;;;17.13;45.35
70434;BME280;57876;47.792;12.960;2023-01-08T06:06:56;96155.16;;;17.16;45.79
70434;BME280;57876;47.792;12.960;2023-01-08T06:09:20;96163.47;;;17.20;45.78
70434;BME280;57876;47.792;12.960;2023-01-08T06:11:45;96167.91;;;17.25;45.67
70434;BME280;57876;47.792;12.960;2023-01-08T06:14:09;96170.31;;;17.26;45.17
70434;BME280;57876;47.792;12.960;2023-01-08T06:16:33;96171.66;;;17.32;45.81
70434;BME280;57876;47.792;12.960;2023-01-08T06:18:58;96164.16;;;17.29;45.64
70434;BME280;57876;47.792;12.960;2023-01-08T06:21:22;96169.81;;;17.36;45.18
70434;BME280;57876;47.792;12.960;2023-01-08T06:23:47;96148.78;;;17.37;45.89
70434;BME280;57876;47.792;12.960;2023-01-08T06:26:11;96148.78;;;17.37;45.88
70434;BME280;57876;47.792;12.960;2023-01-08T06:28:35;96135.91;;;17.37;45.54
70434;BME280;57876;47.792;12.960;2023-01-08T06:31:00;96145.81;;;17.42;45.74
70434;BME280;57876;47.792;12.960;2023-01-08T06:33:26;96130.19;;;17.43;45.46
70434;BME280;57876;47.792;12.960;2023-01-08T06:35:50;96127.09;;;17.44;45.49
70434;BME280;57876;47.792;12.960;2023-01-08T06:38:15;96120.84;;;17.44;45.28
70434;BME280;57876;47.792;12.960;2023-01-08T06:40:42;96127.09;;;17.44;45.57
70434;BME280;57876;47.792;12.960;2023-01-08T06:43:06;96130.97;;;17.43;45.35
70434;BME280;57876;47.792;12.960;2023-01-08T06:45:31;96127.47;;;17.43;45.61
70434;BME280;57876;47.792;12.960;2023-01-08T06:48:00;96111.38;;;17.41;45.83
70434;BME280;57876;47.792;12.960;2023-01-08T06:50:25;96109.03;;;17.39;45.51
70434;BME280;57876;47.792;12.960;2023-01-08T06:52:53;96108.19;;;17.39;45.38
70434;BME280;57876;47.792;12.960;2023-01-08T06:55:18;96116.06;;;17.41;45.77
70434;BME280;57876;47.792;12.960;2023-01-08T06:57:43;96117.22;;;17.39;45.53
70434;BME280;57876;47.792;12.960;2023-01-08T07:00:08;96111.28;;;17.37;45.78
70434;BME280;57876;47.792;12.960;2023-01-08T07:02:32;96098.75;;;17.36;45.92
70434;BME280;57876;47.792;12.960;2023-01-08T07:04:57;96091.00;;;17.38;45.64
70434;BME280;57876;47.792;12.960;2023-01-08T07:07:21;96095.69;;;17.38;45.86
70434;BME280;57876;47.792;12.960;2023-01-08T07:09:45;96104.22;;;17.36;45.24
70434;BME280;57876;47.792;12.960;2023-01-08T07:12:11;96105.03;;;17.37;45.46
70434;BME280;57876;47.792;12.960;2023-01-08T07:14:36;96102.63;;;17.35;45.32
70434;BME280;57876;47.792;12.960;2023-01-08T07:17:00;96101.06;;;17.34;45.47
70434;BME280;57876;47.792;12.960;2023-01-08T07:19:25;96110.84;;;17.35;45.53
70434;BME280;57876;47.792;12.960;2023-01-08T07:21:49;96103.34;;;17.32;45.62
70434;BME280;57876;47.792;12.960;2023-01-08T07:24:13;96111.16;;;17.34;45.54
70434;BME280;57876;47.792;12.960;2023-01-08T07:26:38;96124.16;;;17.37;45.87
70434;BME280;57876;47.792;12.960;2023-01-08T07:29:03;96127.56;;;17.34;45.50
70434;BME280;57876;47.792;12.960;2023-01-08T07:31:27;96129.97;;;17.35;45.52
70434;BME280;57876;47.792;12.960;2023-01-08T07:33:51;96119.38;;;17.34;45.34
70434;BME280;57876;47.792;12.960;2023-01-08T07:36:16;96121.78;;;17.35;45.86
70434;BME280;57876;47.792;12.960;2023-01-08T07:38:45;96121.31;;;17.33;45.42
70434;BME280;57876;47.792;12.960;2023-01-08T07:41:09;96132.69;;;17.35;45.71
70434;BME280;57876;47.792;12.960;2023-01-08T07:43:36;96117.47;;;17.34;45.81
70434;BME280;57876;47.792;12.960;2023-01-08T07:46:02;96123.72;;;17.35;45.51
70434;BME280;57876;47.792;12.960;2023-01-08T07:48:26;96122.09;;;17.34;45.45
70434;BME280;57876;47.792;12.960;2023-01-08T07:50:59;96124.03;;;17.33;45.38
70434;BME280;57876;47.792;12.960;2023-01-08T07:53:23;96122.91;;;17.34;45.64
70434;BME280;57876;47.792;12.960;2023-01-08T07:55:48;96119.28;;;17.30;45.53
70434;BME280;57876;47.792;12.960;2023-01-08T07:58:13;96136.13;;;17.32;45.38
70434;BME280;57876;47.792;12.960;2023-01-08T08:00:38;96127.94;;;17.32;45.62
70434;BME280;57876;47.792;12.960;2023-01-08T08:03:04;96117.69;;;17.29;45.74
70434;BME280;57876;47.792;12.960;2023-01-08T08:05:29;96117.22;;;17.27;45.77
70434;BME280;57876;47.792;12.960;2023-01-08T08:07:54;96123.63;;;17.31;45.29
70434;BME280;57876;47.792;12.960;2023-01-08T08:10:18;96106.63;;;17.26;45.59
70434;BME280;57876;47.792;12.960;2023-01-08T08:12:43;96107.09;;;17.28;45.40
70434;BME280;57876;47.792;12.960;2023-01-08T08:15:08;96118.16;;;17.31;45.67
70434;BME280;57876;47.792;12.960;2023-01-08T08:17:33;96106.75;;;17.29;45.22
70434;BME280;57876;47.792;12.960;2023-01-08T08:19:57;96105.59;;;17.30;45.54
70434;BME280;57876;47.792;12.960;2023-01-08T08:22:22;96106.41;;;17.31;45.33
70434;BME280;57876;47.792;12.960;2023-01-08T08:24:46;96108.78;;;17.32;45.45
70434;BME280;57876;47.792;12.960;2023-01-08T08:27:11;96106.84;;;17.33;45.55
70434;BME280;57876;47.792;12.960;2023-01-08T08:29:35;96109.13;;;17.31;45.56
70434;BME280;57876;47.792;12.960;2023-01-08T08:31:59;96122.47;;;17.32;45.64
70434;BME280;57876;47.792;12.960;2023-01-08T08:34:24;96120.44;;;17.29;45.54
70434;BME280;57876;47.792;12.960;2023-01-08T08:36:48;96115.84;;;17.33;45.64
70434;BME280;57876;47.792;12.960;2023-01-08T08:39:12;96109.81;;;17.28;45.64
70434;BME280;57876;47.792;12.960;2023-01-08T08:41:37;96111.53;;;17.32;45.63
70434;BME280;57876;47.792;12.960;2023-01-08T08:44:01;96115.84;;;17.33;45.62
70434;BME280;57876;47.792;12.960;2023-01-08T08:46:26;96112.31;;;17.33;45.32
70434;BME280;57876;47.792;12.960;2023-01-08T08:48:50;96103.34;;;17.32;45.14
70434;BME280;57876;47.792;12.960;2023-01-08T08:51:14;96104.13;;;17.33;45.37
70434;BME280;57876;47.792;12.960;2023-01-08T08:53:39;96110.84;;;17.35;45.45
70434;BME280;57876;47.792;12.960;2023-01-08T08:56:04;96115.06;;;17.33;45.65
70434;BME280;57876;47.792;12.960;2023-01-08T08:58:28;96112.69;;;17.31;45.30
70434;BME280;57876;47.792;12.960;2023-01-08T09:00:53;96106.84;;;17.33;45.74
70434;BME280;57876;47.792;12.960;2023-01-08T09:03:17;96103.66;;;17.31;45.39
70434;BME280;57876;47.792;12.960;2023-01-08T09:05:42;96115.06;;;17.33;45.12
70434;BME280;57876;47.792;12.960;2023-01-08T09:08:06;96113.00;;;17.30;45.60
70434;BME280;57876;47.792;12.960;2023-01-08T09:10:31;96131.81;;;17.31;45.45
70434;BME280;57876;47.792;12.960;2023-01-08T09:12:55;96131.34;;;17.29;45.55
70434;BME280;57876;47.792;12.960;2023-01-08T09:15:20;96136.81;;;17.29;45.51
70434;BME280;57876;47.792;12.960;2023-01-08T09:17:51;96149.34;;;17.30;45.47
70434;BME280;57876;47.792;12.960;2023-01-08T09:20:15;96137.63;;;17.30;45.27
70434;BME280;57876;47.792;12.960;2023-01-08T09:22:40;96133.72;;;17.31;45.27
70434;BME280;57876;47.792;12.960;2023-01-08T09:25:04;96148.66;;;17.33;45.39
70434;BME280;57876;47.792;12.960;2023-01-08T09:27:29;96142.75;;;17.31;45.31
70434;BME280;57876;47.792;12.960;2023-01-08T09:29:53;96158.00;;;17.32;45.21
70434;BME280;57876;47.792;12.960;2023-01-08T09:32:18;96155.25;;;17.32;45.37
70434;BME280;57876;47.792;12.960;2023-01-08T09:34:42;96166.19;;;17.32;45.57
70434;BME280;57876;47.792;12.960;2023-01-08T09:37:07;96162.31;;;17.33;45.68
70434;BME280;57876;47.792;12.960;2023-01-08T09:39:32;96167.78;;;17.33;45.23
70434;BME280;57876;47.792;12.960;2023-01-08T09:41:59;96175.97;;;17.33;45.38
70434;BME280;57876;47.792;12.960;2023-01-08T09:44:32;96163.47;;;17.32;45.55
70434;BME280;57876;47.792;12.960;2023-01-08T09:46:59;96165.84;;;17.34;45.38
70434;BME280;57876;47.792;12.960;2023-01-08T09:49:43;96168.94;;;17.32;45.15
70434;BME280;57876;47.792;12.960;2023-01-08T09:52:11;96170.50;;;17.33;45.67
70434;BME280;57876;47.792;12.960;2023-01-08T09:54:37;96172.44;;;17.33;45.22
70434;BME280;57876;47.792;12.960;2023-01-08T09:57:01;96168.56;;;17.34;45.42
70434;BME280;57876;47.792;12.960;2023-01-08T09:59:26;96174.03;;;17.34;45.47
70434;BME280;57876;47.792;12.960;2023-01-08T10:01:51;96176.44;;;17.35;45.45
70434;BME280;57876;47.792;12.960;2023-01-08T10:04:22;96173.25;;;17.33;45.54
70434;BME280;57876;47.792;12.960;2023-01-08T10:06:55;96172.13;;;17.34;45.12
70434;BME280;57876;47.792;12.960;2023-01-08T10:09:29;96176.75;;;17.34;45.35
70434;BME280;57876;47.792;12.960;2023-01-08T10:11:57;96182.94;;;17.31;45.19
70434;BME280;57876;47.792;12.960;2023-01-08T10:14:26;96182.69;;;17.36;45.28
70434;BME280;57876;47.792;12.960;2023-01-08T10:17:00;96176.75;;;17.34;45.14
70434;BME280;57876;47.792;12.960;2023-01-08T10:19:26;96174.50;;;17.36;45.12
70434;BME280;57876;47.792;12.960;2023-01-08T10:21:51;96175.66;;;17.35;45.02
70434;BME280;57876;47.792;12.960;2023-01-08T10:24:16;96177.59;;;17.34;45.38
70434;BME280;57876;47.792;12.960;2023-01-08T10:26:42;96170.19;;;17.35;45.21
70434;BME280;57876;47.792;12.960;2023-01-08T10:29:15;96179.16;;;17.35;45.42
70434;BME280;57876;47.792;12.960;2023-01-08T10:31:50;96177.22;;;17.36;45.28
70434;BME280;57876;47.792;12.960;2023-01-08T10:34:54;96163.91;;;17.34;45.51
70434;BME280;57876;47.792;12.960;2023-01-08T10:39:47;96160.38;;;17.34;45.38
70434;BME280;57876;47.792;12.960;2023-01-08T10:42:13;96152.06;;;17.30;45.15
70434;BME280;57876;47.792;12.960;2023-01-08T10:44:53;96149.78;;;17.32;45.59
70434;BME280;57876;47.792;12.960;2023-01-08T10:47:20;96134.88;;;17.30;45.15
70434;BME280;57876;47.792;12.960;2023-01-08T10:49:45;96138.06;;;17.32;45.33
70434;BME280;57876;47.792;12.960;2023-01-08T10:52:26;96137.72;;;17.33;45.08
70434;BME280;57876;47.792;12.960;2023-01-08T10:54:51;96138.16;;;17.35;45.52
70434;BME280;57876;47.792;12.960;2023-01-08T10:57:28;96127.94;;;17.32;45.55
70434;BME280;57876;47.792;12.960;2023-01-08T10:59:53;96107.22;;;17.31;45.45
70434;BME280;57876;47.792;12.960;2023-01-08T11:02:38;96102.97;;;17.34;45.36
70434;BME280;57876;47.792;12.960;2023-01-08T11:05:05;96110.03;;;17.35;45.47
70434;BME280;57876;47.792;12.960;2023-01-08T11:07:32;96114.59;;;17.31;45.08
70434;BME280;57876;47.792;12.960;2023-01-08T11:10:01;96133.41;;;17.32;45.41
70434;BME280;57876;47.792;12.960;2023-01-08T11:12:38;96142.38;;;17.33;45.11
70434;BME280;57876;47.792;12.960;2023-01-08T11:15:35;96128.63;;;17.29;45.27
70434;BME280;57876;47.792;12.960;2023-01-08T11:18:24;96125.66;;;17.34;45.39
70434;BME280;57876;47.792;12.960;2023-01-08T11:20:51;96131.47;;;17.33;45.01
70434;BME280;57876;47.792;12.960;2023-01-08T11:26:05;96126.34;;;17.31;44.99
70434;BME280;57876;47.792;12.960;2023-01-08T11:28:46;96108.69;;;17.29;44.98
70434;BME280;57876;47.792;12.960;2023-01-08T11:31:18;96108.78;;;17.32;45.02
70434;BME280;57876;47.792;12.960;2023-01-08T11:33:46;96101.75;;;17.31;45.42
70434;BME280;57876;47.792;12.960;2023-01-08T11:36:23;96107.56;;;17.30;45.14
70434;BME280;57876;47.792;12.960;2023-01-08T11:38:50;96116.63;;;17.34;45.13
70434;BME280;57876;47.792;12.960;2023-01-08T11:41:37;96110.38;;;17.33;45.45
70434;BME280;57876;47.792;12.960;2023-01-08T11:44:46;96093.97;;;17.33;45.01
70434;BME280;57876;47.792;12.960;2023-01-08T11:47:20;96087.38;;;17.34;45.13
70434;BME280;57876;47.792;12.960;2023-01-08T11:50:13;96082.25;;;17.33;45.45
70434;BME280;57876;47.792;12.960;2023-01-08T11:52:57;96091.25;;;17.33;44.97
70434;BME280;57876;47.792;12.960;2023-01-08T11:58:29;96079.88;;;17.31;45.28
70434;BME280;57876;47.792;12.960;2023-01-08T12:01:07;96074.41;;;17.31;45.33
70434;BME280;57876;47.792;12.960;2023-01-08T12:15:01;96049.00;;;17.31;45.04
70434;BME280;57876;47.792;12.960;2023-01-08T12:20:39;96044.69;;;17.30;45.04
70434;BME280;57876;47.792;12.960;2023-01-08T12:25:53;96049.81;;;17.31;45.08
70434;BME280;57876;47.792;12.960;2023-01-08T12:33:56;96047.75;;;17.28;45.43
70434;BME280;57876;47.792;12.960;2023-01-08T12:36:33;96044.22;;;17.28;45.05
70434;BME280;57876;47.792;12.960;2023-01-08T12:39:03;96058.03;;;17.31;45.22
70434;BME280;57876;47.792;12.960;2023-01-08T12:41:33;96035.94;;;17.24;45.02
70434;BME280;57876;47.792;12.960;2023-01-08T12:44:03;96040.72;;;17.27;45.55
70434;BME280;57876;47.792;12.960;2023-01-08T12:46:41;96050.94;;;17.30;45.23
70434;BME280;57876;47.792;12.960;2023-01-08T12:49:07;96038.44;;;17.29;45.43
70434;BME280;57876;47.792;12.960;2023-01-08T12:52:15;96040.81;;;17.31;45.32
70434;BME280;57876;47.792;12.960;2023-01-08T12:54:59;96027.03;;;17.27;45.00
70434;BME280;57876;47.792;12.960;2023-01-08T12:57:43;96029.44;;;17.29;44.98
70434;BME280;57876;47.792;12.960;2023-01-08T13:00:18;96020.34;;;17.25;45.01
70434;BME280;57876;47.792;12.960;2023-01-08T13:02:58;96027.50;;;17.29;45.11
70434;BME280;57876;47.792;12.960;2023-01-08T13:07:52;96020.09;;;17.30;45.33
70434;BME280;57876;47.792;12.960;2023-01-08T13:10:47;96016.56;;;17.29;44.99
70434;BME280;57876;47.792;12.960;2023-01-08T13:13:45;96018.06;;;17.27;45.33
70434;BME280;57876;47.792;12.960;2023-01-08T13:19:00;95984.47;;;17.26;44.94
70434;BME280;57876;47.792;12.960;2023-01-08T13:21:49;95987.63;;;17.28;45.15
70434;BME280;57876;47.792;12.960;2023-01-08T13:24:35;95991.97;;;17.29;45.15
70434;BME280;57876;47.792;12.960;2023-01-08T13:27:29;95984.91;;;17.28;45.44
70434;BME280;57876;47.792;12.960;2023-01-08T13:29:53;95986.84;;;17.28;45.27
70434;BME280;57876;47.792;12.960;2023-01-08T13:32:43;95972.06;;;17.29;45.12
70434;BME280;57876;47.792;12.960;2023-01-08T13:37:45;95954.41;;;17.26;45.23
70434;BME280;57876;47.792;12.960;2023-01-08T13:43:22;95938.00;;;17.26;44.98
70434;BME280;57876;47.792;12.960;2023-01-08T13:49:05;95936.78;;;17.24;45.10
70434;BME280;57876;47.792;12.960;2023-01-08T13:51:42;95935.94;;;17.23;44.99